Chitina, AK

4:18 AM AKST on February 08, 2016 (GMT -0900)
RAWS | | Change Station
CLOSE
Current Station
Personal Weather Station
Location: Chitina, AK
Elevation: 1579 ft
Nearby Weather Stations

Elev 1579 ft 61.35 °N, 142.71 °W | Updated 1 day ago

Snow
Snow
8 °F
Feels Like 1 °F
N
4
Wind Variable Wind from East
Gusts mph

Today
High -- | Low -- °F
--% Chance of Precip.
Yesterday
High -- | Low -- °F
Precip. -- in
Pressure 30.05 in
Visibility 10.0 miles
Clouds Clear
Windchill 1 °F
Dew Point 4 °F
Humidity 85%
Rainfall in
Snow Depth Not available.
8:34 AM 4:56 PM
Waning Crescent, 0% visible
METAR PAGK 081253Z AUTO 00000KT 10SM CLR M18/M21 A2988 RMK AO2 SLP174 T11831206 TSNO $
Pressure 30.05 in
Visibility 10.0 miles
Clouds Clear
Windchill 1 °F
Dew Point 4 °F
Humidity 85%
Rainfall in
Snow Depth Not available.
8:34 AM 4:56 PM
Waning Crescent, 0% visible
METAR PAGK 081253Z AUTO 00000KT 10SM CLR M18/M21 A2988 RMK AO2 SLP174 T11831206 TSNO $

10-Day Weather Forecast

Almanac

Astronomy

Feb. 08, 2016 Rise Set
Actual Time
Civil Twilight
Nautical Twilight
Astronomical Twilight
Moon
Length of Visible Light
Length of Day
Tomorrow will be .
, % of the Moon is Illuminated

Today's Extremes

State Highs State Lows

Community

WunderPhotos

Upload Photos

1,891,434 photos uploaded!

WunderBlog® & News

Nearby

Air Quality

  Air Quality AQ Index Pollutant
Not available.

Snow Depth

Station Depth Elevation

Earthquake Activity

City Distance Mag. Time & Date
Minimum magnitude displayed is 2.5.

Coastal Water Temperatures

Place Temperature

Stations

Nearby Weather Stations

Station Location Temp. Windchill Dew Point Humidity Wind Precip. Elev Updated Type
                   

Watches & Warnings

There are currently no watches in effect.